Flight Track Log - Related Links

Times and Time Zones

All times are in EDT time to prevent confusion due to time zone crossing. See the SWA2236 flight status page for this flight to view local times or setup timezone preferences in your user account.

Time Position Orientation Groundspeed Altitude Reporting Facility
EDT Latitude Longitude Course Direction KTS MPH feet Rate Location/Type
Wed 02:40:09 PM 36.0761 -115.1789 267° West 187 215 3,200  Level Los Angeles Center
Wed 02:40:52 PM 36.0739 -115.2275 267° West 210 242 4,200 1,608 Climbing Los Angeles Center
Wed 02:41:46 PM 36.0283 -115.2736 219° Southwest 267 307 5,800 1,500 Climbing Los Angeles Center
Wed 02:42:48 PM 35.9522 -115.2944 192° South 280 322 7,100 1,872 Climbing Los Angeles Center
Wed 02:43:51 PM 35.8769 -115.2639 162° South 283 326 9,700 2,544 Climbing Los Angeles Center
Wed 02:44:53 PM 35.8086 -115.2092 147° Southeast 293 337 12,400 2,177 Climbing Los Angeles Center
Wed 02:45:55 PM 35.8111 -115.1036 88° East 308 354 14,200 2,081 Climbing Los Angeles Center
Wed 02:46:57 PM 35.8250 -114.9572 83° East 338 389 16,700 2,226 Climbing Los Angeles Center
Wed 02:47:59 PM 35.8381 -114.8244 83° East 378 435 18,800 2,081 Climbing Los Angeles Center
Wed 02:49:01 PM 35.8511 -114.6897 83° East 394 453 21,000 1,853 Climbing Los Angeles Center
Wed 02:50:15 PM 35.8644 -114.5528 83° East 400 460 23,000 1,664 Climbing Los Angeles Center
Wed 02:51:18 PM 35.8797 -114.3808 84° East 417 480 24,800 1,577 Climbing Los Angeles Center
Wed 02:52:32 PM 35.8964 -114.2019 83° East 433 498 26,600 1,544 Climbing Los Angeles Center
Wed 02:53:34 PM 35.9125 -114.0169 84° East 447 514 28,300 1,324 Climbing Los Angeles Center
Wed 02:54:48 PM 35.9206 -113.8583 86° East 461 531 29,600 1,358 Climbing Los Angeles Center
Wed 02:55:51 PM 35.9181 -113.6653 91° East 469 540 31,400 1,392 Climbing Los Angeles Center
Wed 02:56:53 PM 35.9172 -113.5483 90° East 467 537 32,500 1,500 Climbing Los Angeles Center
Wed 02:57:55 PM 35.9158 -113.3256 90° East 466 536 34,500 1,210 Climbing Los Angeles Center
Wed 02:58:57 PM 35.9142 -113.1681 91° East 462 532 35,000 242 Climbing Los Angeles Center
Wed 02:59:59 PM 35.9122 -113.0106 91° East 460 529 35,000  Level Los Angeles Center
Wed 03:01:01 PM 35.9106 -112.8506 91° East 464 534 35,000 353 Level Los Angeles Center
Wed 03:02:15 PM 35.9086 -112.6914 91° East 465 535 35,800 832 Climbing Los Angeles Center
Wed 03:03:18 PM 35.9058 -112.5019 91° East 462 532 36,900 576 Climbing Los Angeles Center
Wed 03:04:20 PM 35.9019 -112.3114 91° East 464 534 37,000 48 Climbing Los Angeles Center
Wed 03:05:22 PM 35.8992 -112.1531 91° East 464 534 37,000  Level Los Angeles Center
Wed 03:06:24 PM 35.8958 -111.9967 91° East 461 531 37,000  Level Los Angeles Center
Wed 03:07:26 PM 35.8897 -111.8394 93° East 461 531 37,000  Level Los Angeles Center
Wed 03:08:28 PM 35.8856 -111.6839 92° East 459 528 37,000  Level Los Angeles Center
Wed 03:09:11 PM 35.8853 -111.5567 90° East 457 526 37,000  Level Denver Center
Wed 03:10:13 PM 35.8800 -111.4008 92° East 457 526 37,000  Level Denver Center
Wed 03:11:15 PM 35.8764 -111.2456 92° East 456 525 37,000  Level Denver Center
Wed 03:12:18 PM 35.8694 -111.0753 93° East 457 526 37,000  Level Albuquerque Center
Wed 03:13:19 PM 35.8653 -110.9006 92° East 459 528 37,000  Level Albuquerque Center
Wed 03:14:21 PM 35.8600 -110.7517 92° East 457 526 37,000  Level Albuquerque Center
Wed 03:15:23 PM 35.8556 -110.5769 92° East 457 526 37,000  Level Albuquerque Center
Wed 03:16:25 PM 35.8503 -110.4275 92° East 457 526 37,000  Level Albuquerque Center
Wed 03:17:27 PM 35.8439 -110.2539 93° East 455 524 37,000  Level Albuquerque Center
Wed 03:18:28 PM 35.8392 -110.1053 92° East 455 524 37,000  Level Albuquerque Center
Wed 03:19:30 PM 35.8333 -109.9569 93° East 454 522 37,000  Level Albuquerque Center
Wed 03:20:32 PM 35.8267 -109.7831 93° East 455 524 37,000  Level Albuquerque Center
Wed 03:21:34 PM 35.8208 -109.6356 93° East 453 521 37,000  Level Albuquerque Center
Wed 03:22:36 PM 35.8161 -109.4636 92° East 452 520 37,000  Level Albuquerque Center
Wed 03:23:38 PM 35.8267 -109.3147 85° East 457 526 37,000  Level Albuquerque Center
Wed 03:24:39 PM 35.8389 -109.1417 85° East 457 526 37,000  Level Albuquerque Center
Wed 03:25:41 PM 35.8492 -108.9942 85° East 457 526 37,000  Level Albuquerque Center
Wed 03:26:43 PM 35.8614 -108.8219 85° East 458 527 37,000  Level Albuquerque Center
Wed 03:27:45 PM 35.8736 -108.6739 84° East 459 528 37,000  Level Albuquerque Center
Wed 03:28:47 PM 35.8875 -108.5028 84° East 455 524 37,000  Level Albuquerque Center
Wed 03:29:48 PM 35.8997 -108.3561 84° East 452 520 37,000  Level Albuquerque Center
Wed 03:30:50 PM 35.8933 -108.1844 93° East 453 521 37,000  Level Albuquerque Center
Wed 03:31:52 PM 35.8811 -108.0383 96° East 450 518 37,000  Level Albuquerque Center
Wed 03:32:54 PM 35.8672 -107.8658 96° East 453 521 37,000  Level Albuquerque Center
Wed 03:33:55 PM 35.8564 -107.7144 95° East 458 527 37,000  Level Albuquerque Center
Wed 03:34:57 PM 35.8314 -107.5644 102° East 472 543 37,000  Level Albuquerque Center
Wed 03:35:59 PM 35.7944 -107.3942 105° East 463 533 37,000  Level Albuquerque Center
Wed 03:37:01 PM 35.7639 -107.2453 104° East 465 535 37,000  Level Albuquerque Center
Wed 03:38:02 PM 35.7267 -107.0739 105° East 465 535 37,000  Level Albuquerque Center
Wed 03:39:04 PM 35.6942 -106.9261 105° East 466 536 37,000  Level Albuquerque Center
Wed 03:40:06 PM 35.6611 -106.7553 103° East 462 532 37,000  Level Albuquerque Center
Wed 03:41:08 PM 35.6481 -106.6056 96° East 460 529 37,000  Level Albuquerque Center
Wed 03:42:09 PM 35.6328 -106.4628 97° East 458 527 37,000  Level Albuquerque Center
Wed 03:43:11 PM 35.6150 -106.3083 98° East 456 525 37,000  Level Albuquerque Center
Wed 03:44:13 PM 35.5925 -106.1225 98° East 457 526 37,000  Level Albuquerque Center
Wed 03:45:14 PM 35.5747 -105.9686 98° East 455 524 37,000  Level Albuquerque Center
Wed 03:46:16 PM 35.5586 -105.8275 98° East 453 521 37,000  Level Albuquerque Center
Wed 03:47:18 PM 35.5367 -105.6464 98° East 455 524 37,000  Level Albuquerque Center
Wed 03:48:20 PM 35.5150 -105.4925 100° East 454 522 37,000  Level Albuquerque Center
Wed 03:49:21 PM 35.4958 -105.3358 99° East 458 527 37,000  Level Albuquerque Center
Wed 03:50:23 PM 35.4775 -105.1783 98° East 462 532 37,000  Level Albuquerque Center
Wed 03:51:25 PM 35.4583 -105.0219 99° East 462 532 37,000  Level Albuquerque Center
Wed 03:52:26 PM 35.4397 -104.8642 98° East 462 532 37,000  Level Albuquerque Center
Wed 03:53:28 PM 35.4214 -104.7075 98° East 461 531 37,000  Level Albuquerque Center
Wed 03:54:30 PM 35.4025 -104.5508 98° East 460 529 37,000  Level Albuquerque Center
Wed 03:55:32 PM 35.3836 -104.3947 98° East 459 528 37,000  Level Albuquerque Center
Wed 03:56:33 PM 35.3669 -104.2375 97° East 456 525 37,000  Level Albuquerque Center
Wed 03:57:35 PM 35.3469 -104.0744 99° East 466 536 37,000  Level Albuquerque Center
Wed 03:58:37 PM 35.3247 -103.9192 100° East 458 527 37,000  Level Albuquerque Center
Wed 03:59:38 PM 35.3050 -103.7633 99° East 457 526 37,000  Level Albuquerque Center
Wed 04:00:40 PM 35.2819 -103.5833 99° East 454 522 37,000  Level Albuquerque Center
Wed 04:01:42 PM 35.2619 -103.4278 99° East 458 527 37,000  Level Albuquerque Center
Wed 04:02:43 PM 35.2403 -103.2733 100° East 457 526 37,000  Level Albuquerque Center
Wed 04:03:45 PM 35.2200 -103.1181 99° East 458 527 37,000  Level Albuquerque Center
Wed 04:04:47 PM 35.1989 -102.9636 99° East 458 527 37,000  Level Albuquerque Center
Wed 04:05:48 PM 35.1769 -102.8075 100° East 458 527 37,000  Level Albuquerque Center
Wed 04:06:50 PM 35.1556 -102.6553 100° East 458 527 37,000  Level Albuquerque Center
Wed 04:07:52 PM 35.1344 -102.5025 100° East 458 527 37,000  Level Albuquerque Center
Wed 04:08:53 PM 35.1122 -102.3511 100° East 456 525 37,000  Level Albuquerque Center
Wed 04:09:55 PM 35.0908 -102.1986 100° East 457 526 37,000  Level Albuquerque Center
Wed 04:10:56 PM 35.0647 -102.0172 100° East 456 525 37,000  Level Albuquerque Center
Wed 04:11:58 PM 35.0450 -101.8603 99° East 456 525 37,000  Level Albuquerque Center
Wed 04:12:59 PM 35.0214 -101.7078 101° East 454 522 37,000  Level Albuquerque Center
Wed 04:14:01 PM 35.0006 -101.5667 100° East 452 520 37,000  Level Albuquerque Center
Wed 04:15:03 PM 34.9786 -101.4172 100° East 450 518 37,000  Level Albuquerque Center
Wed 04:16:04 PM 34.9500 -101.2417 101° East 456 525 37,000  Level Albuquerque Center
Wed 04:17:06 PM 34.9278 -101.0931 100° East 452 520 37,000  Level Albuquerque Center
Wed 04:18:08 PM 34.9050 -100.9436 100° East 451 519 37,000  Level Albuquerque Center
Wed 04:19:09 PM 34.8825 -100.7939 100° East 451 519 37,000  Level Albuquerque Center
Wed 04:20:11 PM 34.8592 -100.6447 101° East 451 519 37,000  Level Albuquerque Center
Wed 04:21:12 PM 34.8356 -100.4942 101° East 452 520 37,000  Level Albuquerque Center
Wed 04:22:14 PM 34.8106 -100.3353 101° East 450 518 37,000  Level Albuquerque Center
Wed 04:23:16 PM 34.7869 -100.1850 101° East 451 519 37,000  Level Albuquerque Center
Wed 04:24:18 PM 34.7622 -100.0339 101° East 454 522 37,000  Level Albuquerque Center
Wed 04:25:19 PM 34.7378 -99.8850 101° East 451 519 37,000  Level Albuquerque Center
Wed 04:26:21 PM 34.7086 -99.7044 101° East 453 521 37,000  Level Albuquerque Center
Wed 04:27:23 PM 34.6844 -99.5569 101° East 449 517 37,000  Level Albuquerque Center
Wed 04:28:24 PM 34.6594 -99.4081 101° East 450 518 37,000  Level Albuquerque Center
Wed 04:29:26 PM 34.6347 -99.2597 101° East 449 517 37,000  Level Albuquerque Center
Wed 04:30:28 PM 34.6094 -99.1122 102° East 448 516 37,000  Level Albuquerque Center
Wed 04:31:30 PM 34.5831 -98.9622 102° East 448 516 37,000 595 Level Fort Worth Center
Wed 04:32:29 PM 34.5556 -98.8156 103° East 448 516 38,200 958 Climbing Fort Worth Center
Wed 04:33:29 PM 34.5300 -98.6689 102° East 448 516 38,900 397 Climbing Fort Worth Center
Wed 04:34:30 PM 34.5044 -98.5197 102° East 448 516 39,000 50 Climbing Fort Worth Center
Wed 04:35:29 PM 34.4744 -98.3556 102° East 453 521 39,000  Level Fort Worth Center
Wed 04:36:29 PM 34.4483 -98.2119 102° East 448 516 39,000  Level Fort Worth Center
Wed 04:37:30 PM 34.4219 -98.0656 102° East 448 516 39,000  Level Fort Worth Center
Wed 04:38:29 PM 34.3956 -97.9169 102° East 448 516 39,000  Level Fort Worth Center
Wed 04:39:30 PM 34.3711 -97.7708 101° East 448 516 39,000  Level Fort Worth Center
Wed 04:40:30 PM 34.3422 -97.6222 103° East 453 521 39,000  Level Fort Worth Center
Wed 04:41:29 PM 34.3153 -97.4764 103° East 453 521 39,000  Level Fort Worth Center
Wed 04:42:29 PM 34.2861 -97.3331 104° East 448 516 39,000  Level Fort Worth Center
Wed 04:43:30 PM 34.2628 -97.1875 101° East 443 510 39,000  Level Fort Worth Center
Wed 04:44:29 PM 34.2333 -97.0467 104° East 438 504 39,000  Level Fort Worth Center
Wed 04:45:29 PM 34.2078 -96.9011 102° East 438 504 39,000  Level Fort Worth Center
Wed 04:46:30 PM 34.1800 -96.7583 103° East 438 504 39,000  Level Fort Worth Center
Wed 04:47:29 PM 34.1519 -96.6131 103° East 433 498 39,000  Level Fort Worth Center
Wed 04:48:29 PM 34.1239 -96.4703 103° East 433 498 39,000  Level Fort Worth Center
Wed 04:49:30 PM 34.0956 -96.3250 103° East 433 498 39,000  Level Fort Worth Center
Wed 04:50:29 PM 34.0756 -96.1897 100° East 439 505 39,000  Level Fort Worth Center
Wed 04:51:29 PM 34.0447 -96.0425 104° East 450 518 39,000  Level Fort Worth Center
Wed 04:52:30 PM 34.0181 -95.8925 102° East 445 512 39,000  Level Fort Worth Center
Wed 04:53:29 PM 33.9872 -95.7503 105° East 439 505 39,000  Level Fort Worth Center
Wed 04:54:29 PM 33.9600 -95.6081 103° East 434 499 39,000  Level Fort Worth Center
Wed 04:55:30 PM 33.9289 -95.4708 105° East 423 487 39,000  Level Fort Worth Center
Wed 04:56:29 PM 33.9017 -95.3314 103° East 423 487 39,000  Level Fort Worth Center
Wed 04:57:29 PM 33.8719 -95.1919 104° East 428 493 39,000  Level Fort Worth Center
Wed 04:58:30 PM 33.8422 -95.0503 104° East 433 498 39,000  Level Fort Worth Center
Wed 05:00:30 PM 33.7867 -94.7669 103° East 433 498 39,000  Level Fort Worth Center
Wed 05:01:30 PM 33.7586 -94.6278 104° East 433 498 39,000  Level Fort Worth Center
Wed 05:02:30 PM 33.7328 -94.5064 104° East 428 493 39,000  Level Fort Worth Center
Wed 05:03:29 PM 33.7022 -94.3650 105° East 428 493 39,000  Level Fort Worth Center
Wed 05:04:29 PM 33.6758 -94.2261 103° East 428 493 39,000  Level Fort Worth Center
Wed 05:05:29 PM 33.6472 -94.0875 104° East 428 493 39,000  Level Fort Worth Center
Wed 05:06:29 PM 33.6164 -93.9464 105° East 433 498 39,000  Level Fort Worth Center
Wed 05:07:30 PM 33.5894 -93.8103 103° East 433 498 39,000  Level Fort Worth Center
Wed 05:08:29 PM 33.5564 -93.6722 106° East 433 498 39,000  Level Fort Worth Center
Wed 05:09:29 PM 33.5272 -93.5364 104° East 428 493 39,000  Level Fort Worth Center
Wed 05:10:29 PM 33.4981 -93.4106 106° East 421 484 39,000  Level Fort Worth Center
Wed 05:11:29 PM 33.4686 -93.2750 105° East 415 478 39,000  Level Fort Worth Center
Wed 05:12:29 PM 33.4372 -93.1422 106° East 415 478 39,000  Level Fort Worth Center
Wed 05:13:30 PM 33.4075 -93.0067 105° East 415 478 39,000  Level Fort Worth Center
Wed 05:14:30 PM 33.3750 -92.8617 105° East 415 478 39,000  Level Fort Worth Center
Wed 05:15:29 PM 33.3472 -92.7286 104° East 415 478 39,000  Level Fort Worth Center
Wed 05:16:30 PM 33.3150 -92.5939 106° East 415 478 39,000  Level Fort Worth Center
Wed 05:17:30 PM 33.2847 -92.4611 105° East 415 478 39,000  Level Fort Worth Center
Wed 05:18:29 PM 33.2544 -92.3264 105° East 415 478 39,000  Level Fort Worth Center
Wed 05:19:30 PM 33.2236 -92.1892 105° East 415 478 39,000  Level Fort Worth Center
Wed 05:20:29 PM 33.1911 -92.0569 106° East 415 478 39,000  Level Fort Worth Center
Wed 05:21:50 PM 33.1469 -91.8906 108° East 425 489 39,000  Level Memphis Center
Wed 05:22:50 PM 33.1150 -91.7611 106° East 420 483 39,000  Level Memphis Center
Wed 05:23:50 PM 33.0831 -91.6242 106° East 420 483 39,000  Level Memphis Center
Wed 05:24:50 PM 33.0508 -91.4900 106° East 420 483 39,000  Level Memphis Center
Wed 05:25:50 PM 33.0228 -91.3583 104° East 420 483 39,000  Level Memphis Center
Wed 05:26:50 PM 32.9864 -91.2242 108° East 420 483 39,000  Level Memphis Center
Wed 05:27:50 PM 32.9536 -91.0900 106° East 420 483 39,000  Level Memphis Center
Wed 05:28:50 PM 32.9231 -90.9561 105° East 420 483 39,000  Level Memphis Center
Wed 05:29:50 PM 32.8903 -90.8247 107° East 420 483 39,000  Level Memphis Center
Wed 05:30:50 PM 32.8594 -90.6911 105° East 420 483 39,000  Level Memphis Center
Wed 05:31:50 PM 32.8242 -90.5625 108° East 415 478 39,000  Level Memphis Center
Wed 05:32:50 PM 32.7889 -90.4167 106° East 415 478 39,000  Level Memphis Center
Wed 05:33:50 PM 32.7553 -90.2881 107° East 415 478 39,000  Level Memphis Center
Wed 05:34:50 PM 32.7219 -90.1572 107° East 415 478 39,000  Level Memphis Center
Wed 05:35:50 PM 32.6881 -90.0289 107° East 415 478 39,000  Level Memphis Center
Wed 05:36:50 PM 32.6544 -89.8983 107° East 415 478 39,000  Level Memphis Center
Wed 05:37:50 PM 32.6225 -89.7678 106° East 415 478 39,000  Level Memphis Center
Wed 05:38:50 PM 32.5883 -89.6372 107° East 415 478 39,000  Level Memphis Center
Wed 05:39:50 PM 32.5583 -89.5217 107° East 415 478 39,000  Level Memphis Center
Wed 05:40:50 PM 32.5303 -89.3914 104° East 415 478 39,000  Level Memphis Center
Wed 05:41:50 PM 32.5042 -89.2561 103° East 410 472 39,000  Level Memphis Center
Wed 05:42:50 PM 32.4800 -89.1236 102° East 415 478 39,000  Level Memphis Center
Wed 05:43:50 PM 32.4556 -88.9883 102° East 415 478 39,000  Level Memphis Center
Wed 05:45:02 PM 32.4267 -88.8289 102° East 410 472 39,000  Level Memphis Center
Wed 05:48:00 PM 32.3531 -88.4325 102° East 395 455 39,000  Level Atlanta Center
Wed 05:49:00 PM 32.3222 -88.3006 105° East 400 460 39,000  Level Atlanta Center
Wed 05:50:00 PM 32.2892 -88.1689 107° East 405 466 39,000  Level Atlanta Center
Wed 05:51:00 PM 32.2494 -88.0417 110° East 405 466 39,000  Level Atlanta Center
Wed 05:52:00 PM 32.2139 -87.9100 108° East 410 472 39,000  Level Atlanta Center
Wed 05:53:00 PM 32.1742 -87.7808 110° East 410 472 39,000  Level Atlanta Center
Wed 05:54:00 PM 32.1439 -87.6789 109° East 410 472 39,000  Level Atlanta Center
Wed 05:55:00 PM 32.0942 -87.5225 111° Southeast 415 478 39,000  Level Atlanta Center
Wed 05:56:00 PM 32.0561 -87.3886 109° East 415 478 39,000 -250 Level Atlanta Center
Wed 05:57:00 PM 32.0158 -87.2550 110° East 415 478 38,500 -750 Descending Atlanta Center
Wed 05:58:00 PM 31.9753 -87.1239 110° East 420 483 37,500 -750 Descending Atlanta Center
Wed 05:59:00 PM 31.9369 -86.9878 108° East 427 491 37,000 -250 Descending Atlanta Center
Wed 06:00:00 PM 31.8939 -86.8567 111° Southeast 432 497 37,000  Level Atlanta Center
Wed 06:01:50 PM 31.8256 -86.6286 109° East 435 501 37,000  Level Jacksonville Center
Wed 06:02:50 PM 31.7853 -86.5000 110° East 430 495 37,000  Level Jacksonville Center
Wed 06:03:50 PM 31.7453 -86.3689 110° East 430 495 37,000  Level Jacksonville Center
Wed 06:04:50 PM 31.7047 -86.2403 110° East 430 495 37,000  Level Jacksonville Center
Wed 06:05:50 PM 31.6664 -86.1144 110° East 425 489 37,000  Level Jacksonville Center
Wed 06:06:50 PM 31.6025 -85.9978 123° Southeast 413 475 37,000  Level Jacksonville Center
Wed 06:07:50 PM 31.5333 -85.9175 135° Southeast 413 475 37,000 -400 Level Jacksonville Center
Wed 06:08:50 PM 31.4697 -85.7764 118° Southeast 418 481 36,200 -850 Descending Jacksonville Center
Wed 06:09:50 PM 31.4331 -85.6439 108° East 412 474 35,300 -600 Descending Jacksonville Center
Wed 06:10:50 PM 31.3961 -85.5139 108° East 417 480 35,000 -150 Descending Jacksonville Center
Wed 06:11:50 PM 31.3572 -85.3814 109° East 417 480 35,000  Level Jacksonville Center
Wed 06:12:50 PM 31.3222 -85.2394 106° East 416 479 35,000 50 Level Jacksonville Center
Wed 06:13:50 PM 31.2847 -85.1217 110° East 421 484 35,100  Climbing Jacksonville Center
Wed 06:14:50 PM 31.2472 -84.9922 109° East 421 484 35,000 -50 Descending Jacksonville Center
Wed 06:15:50 PM 31.2075 -84.8600 109° East 427 491 35,000 -150 Level Jacksonville Center
Wed 06:16:50 PM 31.1678 -84.7256 109° East 432 497 34,700 -600 Descending Jacksonville Center
Wed 06:17:50 PM 31.1300 -84.5939 108° East 432 497 33,800 -950 Descending Jacksonville Center
Wed 06:18:50 PM 31.0900 -84.4644 110° East 432 497 32,800 -1,000 Descending Jacksonville Center
Wed 06:19:50 PM 31.0497 -84.3306 109° East 432 497 31,800 -1,000 Descending Jacksonville Center
Wed 06:20:50 PM 31.0094 -84.1967 109° East 432 497 30,800 -1,050 Descending Jacksonville Center
Wed 06:21:50 PM 30.9731 -84.0725 109° East 427 491 29,700 -900 Descending Jacksonville Center
Wed 06:22:50 PM 30.9364 -83.9533 110° East 408 470 29,000 -350 Descending Jacksonville Center
Wed 06:23:50 PM 30.8914 -83.8417 115° Southeast 393 452 29,000  Level Jacksonville Center
Wed 06:24:50 PM 30.8317 -83.7467 126° Southeast 372 428 29,000 -150 Level Jacksonville Center
Wed 06:25:50 PM 30.8050 -83.6350 106° East 361 415 28,700 -1,100 Descending Jacksonville Center
Wed 06:26:50 PM 30.7744 -83.5139 106° East 348 400 26,800 -1,700 Descending Jacksonville Center
Wed 06:27:50 PM 30.7456 -83.4097 108° East 343 395 25,300 -1,350 Descending Jacksonville Center
Wed 06:28:50 PM 30.7189 -83.3083 107° East 338 389 24,100 -650 Descending Jacksonville Center
Wed 06:29:50 PM 30.6878 -83.1969 108° East 343 395 24,000 -50 Descending Jacksonville Center
Wed 06:30:50 PM 30.6547 -83.0833 109° East 357 411 24,000  Level Jacksonville Center
Wed 06:31:50 PM 30.5797 -83.0108 140° Southeast 341 392 24,000  Level Jacksonville Center
Wed 06:32:50 PM 30.4794 -82.9842 167° South 341 392 24,000 -100 Level Jacksonville Center
Wed 06:33:50 PM 30.3833 -82.9456 161° South 343 395 23,800 -1,300 Descending Jacksonville Center
Wed 06:34:50 PM 30.3792 -82.8372 93° East 304 350 21,400 -2,450 Descending Jacksonville Center
Wed 06:35:50 PM 30.4250 -82.7311 63° Northeast 289 333 18,900 -2,400 Descending Jacksonville Center
Wed 06:36:50 PM 30.4667 -82.6347 63° Northeast 326 375 16,600 -2,600 Descending Jacksonville Center
Wed 06:37:20 PM 30.4958 -82.5744 61° Northeast 383 441 15,000 -2,800 Descending Jacksonville Center
Wed 06:37:50 PM 30.5125 -82.5236 69° East 350 403 13,800 -2,754 Descending Jacksonville Center
Wed 06:38:21 PM 30.5372 -82.4608 65° Northeast 383 441 12,200 -1,976 Descending Jacksonville Center
Wed 06:39:15 PM 30.5514 -82.3547 81° East 360 414 11,000 -1,011 Descending Jacksonville Center
Wed 06:39:50 PM 30.5428 -82.3017 101° East 349 402 10,700 -1,164 Descending Jacksonville Center
Wed 06:40:22 PM 30.5322 -82.2389 101° East 301 346 9,700 -1,806 Descending Jacksonville Center
Wed 06:41:23 PM 30.5169 -82.1475 101° East 291 335 7,900 -1,820 Descending Jacksonville Center
Wed 06:42:24 PM 30.5061 -82.0583 98° East 279 321 6,000 -1,964 Descending Jacksonville Center
Wed 06:43:13 PM 30.4908 -81.9836 103° East 279 321 4,300 -1,744 Descending Jacksonville Center
Wed 06:43:50 PM 30.4864 -81.9403 97° East 276 318 3,500 -990 Descending Jacksonville Center
Wed 06:44:50 PM 30.4711 -81.8489 101° East 271 312 2,700 -900 Descending Jacksonville Center
Wed 06:45:50 PM 30.4664 -81.7864 95° East 239 275 1,700 -980 Descending Jacksonville Center
Wed 06:46:28 PM 30.4786 -81.7525 67° East 146 168 1,100 -848 Descending Jacksonville Center
Wed 06:47:29 PM 30.4908 -81.7114 71° East 138 159 300 -787 Descending Jacksonville Center
Wed 06:49:00 PM 30.4833 -81.6833 311° West  Level FlightAware Approximate

Login

Don't have an account? Register now (free) for customized features, flight alerts, and more!